createdAt,value
2023-03-28T00:00:14.608Z,1.90
2023-03-28T00:04:27.271Z,1.58
2023-03-28T00:08:41.024Z,1.85
2023-03-28T00:13:00.426Z,2.33
2023-03-28T00:17:13.331Z,1.25
2023-03-28T00:21:40.535Z,1.63
2023-03-28T00:25:52.960Z,2.60
2023-03-28T00:30:06.629Z,2.25
2023-03-28T00:34:19.256Z,2.45
2023-03-28T00:38:32.809Z,2.38
2023-03-28T00:42:45.284Z,1.80
2023-03-28T00:47:37.513Z,1.50
2023-03-28T00:51:58.356Z,2.42
2023-03-28T00:56:13.701Z,2.65
2023-03-28T01:00:27.065Z,2.70
2023-03-28T01:04:50.556Z,1.58
2023-03-28T01:09:08.216Z,2.55
2023-03-28T01:13:27.119Z,2.42
2023-03-28T01:17:42.183Z,1.60
2023-03-28T01:22:56.982Z,0.70
2023-03-28T01:27:52.989Z,1.83
2023-03-28T01:32:17.358Z,2.80
2023-03-28T01:37:04.261Z,3.60
2023-03-28T01:41:52.104Z,1.75
2023-03-28T01:46:16.611Z,2.33
2023-03-28T01:50:52.424Z,3.70
2023-03-28T01:55:23.213Z,3.60
2023-03-28T01:59:44.021Z,2.85
2023-03-28T02:04:02.074Z,4.45
2023-03-28T02:08:16.353Z,3.03
2023-03-28T02:12:37.565Z,5.32
2023-03-28T02:16:58.187Z,3.67
2023-03-28T02:21:19.753Z,2.13
2023-03-28T02:25:33.243Z,2.60
2023-03-28T02:29:45.760Z,4.35
2023-03-28T02:34:10.153Z,3.92
2023-03-28T02:38:36.132Z,4.22
2023-03-28T02:43:19.544Z,4.60
2023-03-28T02:47:37.067Z,2.85
2023-03-28T02:52:24.324Z,0.88
2023-03-28T02:57:08.902Z,3.55
2023-03-28T03:01:22.930Z,3.38
2023-03-28T03:05:35.794Z,3.13
2023-03-28T03:09:48.232Z,7.47
2023-03-28T03:14:01.194Z,3.42
2023-03-28T03:18:24.121Z,3.08
2023-03-28T03:22:43.330Z,2.20
2023-03-28T03:26:55.832Z,2.08
2023-03-28T03:31:08.935Z,2.25
2023-03-28T03:35:21.648Z,2.70
2023-03-28T03:39:34.089Z,2.58
2023-03-28T03:43:47.331Z,4.18
2023-03-28T03:48:00.082Z,3.35
2023-03-28T03:52:22.688Z,3.38
2023-03-28T03:56:35.698Z,2.53
2023-03-28T04:00:49.708Z,4.72
2023-03-28T04:05:02.193Z,3.38
2023-03-28T04:09:14.692Z,4.97
2023-03-28T04:13:27.239Z,2.75
2023-03-28T04:17:42.057Z,4.20
2023-03-28T04:21:57.871Z,4.05
2023-03-28T04:26:10.972Z,3.63
2023-03-28T04:30:25.163Z,6.32
2023-03-28T04:34:39.087Z,2.85
2023-03-28T04:38:51.679Z,3.38
2023-03-28T04:43:04.138Z,5.18
2023-03-28T04:47:20.985Z,2.30
2023-03-28T04:51:33.488Z,3.10
2023-03-28T04:55:51.235Z,3.38
2023-03-28T05:00:06.805Z,4.40
2023-03-28T05:04:22.171Z,3.80
2023-03-28T05:08:34.711Z,3.72
2023-03-28T05:12:47.200Z,2.50
2023-03-28T05:16:59.697Z,4.07
2023-03-28T05:21:12.226Z,4.93
2023-03-28T05:25:26.610Z,5.43
2023-03-28T05:29:45.635Z,3.35
2023-03-28T05:33:58.380Z,3.22
2023-03-28T05:38:10.898Z,3.45
2023-03-28T05:42:27.965Z,4.35
2023-03-28T05:46:40.523Z,5.60
2023-03-28T05:50:53.686Z,5.55
2023-03-28T05:55:07.593Z,3.60
2023-03-28T05:59:20.872Z,3.72
2023-03-28T06:03:33.410Z,4.25
2023-03-28T06:07:46.012Z,5.43
2023-03-28T06:12:06.272Z,4.07
2023-03-28T06:16:18.896Z,4.15
2023-03-28T06:20:43.065Z,6.40
2023-03-28T06:24:55.674Z,4.18
2023-03-28T06:29:08.215Z,4.13
2023-03-28T06:33:20.726Z,4.68
2023-03-28T06:37:33.179Z,4.10
2023-03-28T06:41:45.584Z,3.38
2023-03-28T06:45:58.498Z,1.98
2023-03-28T06:50:11.929Z,3.75
2023-03-28T06:54:24.404Z,3.63
2023-03-28T06:58:36.868Z,4.20
2023-03-28T07:02:49.403Z,3.03
2023-03-28T07:07:02.072Z,2.97
2023-03-28T07:11:14.556Z,3.65
2023-03-28T07:15:27.201Z,3.85
2023-03-28T07:19:39.657Z,3.55
2023-03-28T07:23:52.270Z,3.17
2023-03-28T07:28:04.725Z,3.90
2023-03-28T07:32:17.550Z,2.20
2023-03-28T07:36:30.078Z,3.88
2023-03-28T07:40:42.561Z,2.40
2023-03-28T07:44:55.533Z,2.30
2023-03-28T07:49:07.979Z,2.08
2023-03-28T07:53:20.360Z,2.42
2023-03-28T07:57:32.821Z,2.00
2023-03-28T08:01:55.454Z,2.78
2023-03-28T08:10:51.871Z,1.20
2023-03-28T08:15:05.934Z,1.63
2023-03-28T08:19:18.746Z,1.27
2023-03-28T08:23:31.474Z,1.50
2023-03-28T08:27:43.944Z,2.30
2023-03-28T08:31:57.078Z,1.85
2023-03-28T08:36:11.254Z,1.15
2023-03-28T08:40:27.045Z,1.35
2023-03-28T08:44:58.345Z,2.78
2023-03-28T08:49:16.632Z,2.10
2023-03-28T08:53:38.182Z,1.92
2023-03-28T08:57:55.681Z,1.13
2023-03-28T09:02:21.895Z,2.42
2023-03-28T09:06:40.878Z,1.30
2023-03-28T09:11:31.035Z,1.50
2023-03-28T09:16:09.709Z,1.70
2023-03-28T09:20:31.864Z,1.77
2023-03-28T09:25:07.861Z,1.33
2023-03-28T09:29:25.904Z,1.75
2023-03-28T09:33:44.167Z,1.95
2023-03-28T09:38:12.859Z,1.65
2023-03-28T09:43:06.025Z,1.33
2023-03-28T09:47:18.518Z,1.15
2023-03-28T09:51:31.343Z,1.10
2023-03-28T09:55:49.085Z,1.50
2023-03-28T10:00:22.133Z,1.20
2023-03-28T10:04:39.371Z,1.20
2023-03-28T10:08:52.342Z,0.80
2023-03-28T10:13:06.018Z,1.40
2023-03-28T10:17:37.526Z,1.50
2023-03-28T10:21:50.223Z,1.52
2023-03-28T10:26:04.873Z,1.02
2023-03-28T10:30:32.699Z,1.20
2023-03-28T10:35:07.464Z,1.17
2023-03-28T10:39:25.113Z,0.90
2023-03-28T10:43:41.606Z,1.35
2023-03-28T10:47:58.965Z,1.50
2023-03-28T10:52:38.092Z,1.17
2023-03-28T10:57:17.085Z,0.98
2023-03-28T11:02:08.050Z,1.45
2023-03-28T11:06:28.363Z,0.73
2023-03-28T11:11:15.030Z,0.80
2023-03-28T11:15:48.603Z,1.20
2023-03-28T11:20:57.219Z,0.93
2023-03-28T11:25:50.365Z,1.25
2023-03-28T11:30:18.838Z,1.10
2023-03-28T11:34:38.838Z,1.20
2023-03-28T11:38:59.470Z,0.95
2023-03-28T11:43:22.153Z,1.10
2023-03-28T11:47:43.674Z,1.40
2023-03-28T11:52:26.552Z,1.13
2023-03-28T11:57:02.107Z,1.67
2023-03-28T12:01:22.361Z,1.27
2023-03-28T12:05:42.884Z,1.30
2023-03-28T12:10:24.457Z,1.75
2023-03-28T12:14:57.708Z,1.15
2023-03-28T12:19:19.211Z,1.33
2023-03-28T12:24:15.021Z,1.55
2023-03-28T12:28:44.410Z,1.55
2023-03-28T12:33:02.890Z,1.13
2023-03-28T12:37:30.797Z,1.67
2023-03-28T12:41:43.681Z,1.48
2023-03-28T12:46:03.947Z,1.60
2023-03-28T12:50:45.171Z,1.05
2023-03-28T12:55:10.570Z,1.40
2023-03-28T13:00:25.177Z,1.30
2023-03-28T13:04:55.976Z,1.63
2023-03-28T13:09:27.159Z,1.55
2023-03-28T13:13:50.670Z,1.40
2023-03-28T13:18:21.119Z,1.73
2023-03-28T13:22:43.222Z,1.70
2023-03-28T13:26:59.659Z,1.35
2023-03-28T13:31:26.572Z,1.52
2023-03-28T13:35:44.561Z,1.38
2023-03-28T13:40:01.101Z,1.20
2023-03-28T13:44:22.283Z,1.30
2023-03-28T13:48:45.278Z,1.65
2023-03-28T13:52:57.721Z,1.60
2023-03-28T13:57:18.959Z,1.60
2023-03-28T14:01:38.626Z,1.60
2023-03-28T14:05:51.246Z,1.70
2023-03-28T14:10:32.865Z,1.90
2023-03-28T14:14:51.995Z,1.90
2023-03-28T14:19:06.732Z,2.28
2023-03-28T14:23:28.322Z,2.00
2023-03-28T14:27:52.943Z,1.90
2023-03-28T14:32:18.100Z,1.60
2023-03-28T14:36:59.094Z,1.92
2023-03-28T14:41:22.172Z,1.52
2023-03-28T14:45:38.539Z,1.55
2023-03-28T14:49:51.071Z,1.70
2023-03-28T14:54:05.837Z,2.20
2023-03-28T14:58:29.003Z,1.67
2023-03-28T15:02:43.433Z,1.58
2023-03-28T15:06:58.743Z,1.50
2023-03-28T15:11:20.258Z,1.52
2023-03-28T15:15:59.093Z,1.63
2023-03-28T15:20:19.964Z,1.70
2023-03-28T15:24:33.024Z,1.95
2023-03-28T15:28:45.535Z,1.92
2023-03-28T15:33:06.939Z,1.70
2023-03-28T15:37:22.969Z,1.67
2023-03-28T15:41:47.155Z,2.25
2023-03-28T15:46:05.309Z,2.08
2023-03-28T15:50:28.544Z,2.38
2023-03-28T15:54:47.150Z,2.28
2023-03-28T15:59:04.717Z,1.65
2023-03-28T16:03:31.098Z,2.00
2023-03-28T16:07:49.482Z,1.90
2023-03-28T16:12:04.428Z,2.03
2023-03-28T16:16:27.548Z,1.90
2023-03-28T16:20:40.914Z,2.10
2023-03-28T16:24:55.469Z,1.95
2023-03-28T16:29:08.700Z,1.77
2023-03-28T16:33:21.190Z,1.58
2023-03-28T16:37:33.643Z,2.08
2023-03-28T16:41:46.309Z,3.28
2023-03-28T16:45:58.893Z,2.30
2023-03-28T16:50:11.772Z,2.17
2023-03-28T16:54:25.026Z,2.15
2023-03-28T16:58:37.473Z,2.38
2023-03-28T17:02:50.243Z,2.55
2023-03-28T17:07:02.819Z,2.20
2023-03-28T17:11:16.370Z,2.35
2023-03-28T17:15:32.641Z,1.90
2023-03-28T17:19:53.620Z,1.65
2023-03-28T17:24:16.119Z,2.15
2023-03-28T17:28:30.151Z,2.13
2023-03-28T17:32:43.083Z,1.88
2023-03-28T17:36:55.570Z,1.60
2023-03-28T17:41:08.898Z,1.92
2023-03-28T17:45:21.854Z,1.90
2023-03-28T17:49:34.278Z,2.05
2023-03-28T17:53:49.999Z,1.63
2023-03-28T17:58:05.722Z,1.38
2023-03-28T18:02:18.331Z,1.42
2023-03-28T18:06:30.954Z,1.40
2023-03-28T18:10:44.305Z,1.40
2023-03-28T18:15:00.793Z,3.40
2023-03-28T18:19:18.478Z,2.30
2023-03-28T18:23:31.770Z,2.47
2023-03-28T18:27:44.222Z,1.52
2023-03-28T18:31:56.941Z,1.48
2023-03-28T18:36:10.790Z,1.65
2023-03-28T18:40:28.402Z,1.30
2023-03-28T18:44:41.642Z,1.60
2023-03-28T18:48:55.476Z,1.98
2023-03-28T18:53:08.044Z,1.80
2023-03-28T18:57:20.681Z,1.92
2023-03-28T19:01:35.008Z,1.83
2023-03-28T19:05:47.477Z,2.05
2023-03-28T19:09:59.892Z,2.50
2023-03-28T19:14:12.472Z,2.25
2023-03-28T19:18:24.991Z,2.13
2023-03-28T19:22:37.441Z,2.25
2023-03-28T19:26:50.476Z,1.63
2023-03-28T19:31:06.766Z,2.05
2023-03-28T19:35:19.339Z,1.98
2023-03-28T19:39:37.512Z,2.20
2023-03-28T19:43:51.868Z,2.17
2023-03-28T19:48:04.552Z,2.58
2023-03-28T19:52:17.079Z,2.05
2023-03-28T19:56:29.595Z,2.03
2023-03-28T20:00:42.476Z,2.33
2023-03-28T20:05:06.069Z,2.33
2023-03-28T20:09:18.663Z,1.95
2023-03-28T20:13:31.278Z,2.15
2023-03-28T20:17:53.746Z,2.30
2023-03-28T20:22:08.742Z,2.22
2023-03-28T20:26:27.874Z,2.55
2023-03-28T20:30:42.240Z,2.28
2023-03-28T20:34:54.693Z,1.77
2023-03-28T20:39:07.874Z,2.28
2023-03-28T20:43:27.435Z,2.45
2023-03-28T20:47:40.066Z,2.20
2023-03-28T20:51:53.265Z,2.50
2023-03-28T20:56:07.128Z,2.53
2023-03-28T21:00:20.000Z,2.28
2023-03-28T21:04:34.268Z,2.08
2023-03-28T21:08:50.353Z,2.35
2023-03-28T21:13:13.197Z,2.20
2023-03-28T21:17:29.834Z,2.58
2023-03-28T21:21:42.475Z,2.55
2023-03-28T21:25:54.965Z,2.63
2023-03-28T21:30:09.217Z,2.72
2023-03-28T21:34:31.418Z,2.63
2023-03-28T21:38:45.478Z,2.40
2023-03-28T21:42:57.916Z,2.63
2023-03-28T21:47:11.173Z,2.42
2023-03-28T21:51:23.662Z,2.40
2023-03-28T21:55:36.368Z,2.88
2023-03-28T21:59:48.840Z,2.72
2023-03-28T22:04:01.681Z,2.35
2023-03-28T22:08:14.560Z,2.47
2023-03-28T22:12:27.034Z,2.28
2023-03-28T22:16:40.696Z,2.40
2023-03-28T22:20:56.382Z,2.25
2023-03-28T22:25:11.598Z,2.05
2023-03-28T22:29:24.184Z,2.33
2023-03-28T22:33:37.879Z,2.13
2023-03-28T22:37:50.454Z,2.03
2023-03-28T22:42:03.042Z,2.05
2023-03-28T22:46:17.074Z,2.45
2023-03-28T22:50:30.501Z,1.83
2023-03-28T22:54:45.454Z,2.70
2023-03-28T22:59:01.792Z,1.67
2023-03-28T23:03:15.096Z,1.95
2023-03-28T23:07:28.394Z,1.92
2023-03-28T23:11:41.889Z,1.80
2023-03-28T23:15:56.091Z,1.70
2023-03-28T23:20:13.234Z,1.90
2023-03-28T23:24:28.481Z,1.55
2023-03-28T23:28:41.275Z,1.30
2023-03-28T23:32:53.760Z,1.65
2023-03-28T23:37:06.266Z,1.65
2023-03-28T23:41:18.744Z,1.80
2023-03-28T23:45:31.404Z,1.70
2023-03-28T23:49:43.990Z,1.67
2023-03-28T23:53:57.165Z,1.98
2023-03-28T23:58:10.322Z,1.70
